Portada
METAR-TAF:

METAR-TAF

Aeroports :

Aeroport de Cherif Al Idrissi

Al Hoceima, Marroc

latitud: 35-11N, longitud: 003-51W, altitud: 27 m

Observació

L'informe es va fer fa 27 minuts, a les 10:00 UTC
Vent 12 kt del Sud
Temperatura 17°C
Humitat 45%
Pressió 1018 hPa
Visibilitat 10 km o més
Núvols disperses a una alçada de 3000 ft
Cel ennuvolat a una alçada de 10000 ft

METAR: GMTA 251000Z 18012KT 9999 SCT030 BKN100 17/05 Q1018 NOSIG

Hora: 11:27 (10:27 UTC)

Pronòstic

L'informe es va fer fa 5 hores i 27 minuts, a les 05:00 UTC
Pronòstic vàlid del 25 a les 06 UTC al 26 a les 12 UTC
Vent 3 kt del Sud/Sud-Oest
Visibilitat 10 km o més
Cel ennuvolat a una alçada de 20000 ft
Evolucionant progressivament
l' 25 a les 06 UTC al 25 a les 08 UTC
Núvols disperses a una alçada de 2000 ft

TAF: GMTA 250500Z 2506/2612 21003KT 9999 BKN200 BECMG 2506/2508 SCT020

Observacions i pronòstics meteorològics de més de 4000 aeroports (METAR i TAF).

Les estacions disponibles són els punts grocs i vermells al mapa.

Posi el ratolí al punt desitjat per veure el nom de l'estació.

Feu clic per veure les observacions i els pronòstics meteorològics.

Per canviar el mapa: feu clic els botons verds amb una creu de color negre per apropar; al botó verd amb un guió per allunyar la imatge; o en les fletxes verdes per a mapes adjacents.


METAR-TAF: